createdAt,value
2022-12-11T00:01:45.567Z,42.27
2022-12-11T00:04:10.250Z,41.90
2022-12-11T00:06:33.547Z,35.83
2022-12-11T00:08:57.245Z,34.03
2022-12-11T00:11:21.662Z,31.10
2022-12-11T00:13:45.288Z,28.60
2022-12-11T00:16:09.477Z,27.40
2022-12-11T00:18:32.909Z,22.63
2022-12-11T00:21:01.669Z,22.17
2022-12-11T00:23:24.957Z,22.97
2022-12-11T00:25:49.650Z,24.33
2022-12-11T00:28:13.702Z,22.23
2022-12-11T00:30:40.774Z,22.07
2022-12-11T00:33:04.155Z,22.17
2022-12-11T00:35:27.452Z,22.73
2022-12-11T00:37:52.125Z,26.37
2022-12-11T00:40:15.367Z,25.77
2022-12-11T00:42:38.677Z,22.63
2022-12-11T00:45:01.887Z,24.43
2022-12-11T00:47:25.208Z,24.13
2022-12-11T00:49:50.199Z,26.17
2022-12-11T00:52:13.598Z,25.90
2022-12-11T00:54:38.278Z,28.13
2022-12-11T00:57:01.551Z,32.10
2022-12-11T00:59:24.934Z,32.07
2022-12-11T01:01:48.321Z,29.90
2022-12-11T01:04:11.581Z,32.90
2022-12-11T01:06:34.808Z,33.93
2022-12-11T01:09:12.445Z,34.17
2022-12-11T01:11:37.621Z,34.10
2022-12-11T01:14:00.956Z,36.43
2022-12-11T01:16:24.240Z,36.80
2022-12-11T01:18:47.639Z,35.73
2022-12-11T01:21:13.927Z,34.40
2022-12-11T01:23:37.835Z,35.77
2022-12-11T01:26:08.101Z,33.23
2022-12-11T01:28:32.870Z,33.87
2022-12-11T01:30:56.234Z,32.80
2022-12-11T01:33:19.490Z,31.43
2022-12-11T01:35:42.829Z,30.97
2022-12-11T01:38:06.223Z,29.30
2022-12-11T01:40:29.779Z,28.63
2022-12-11T01:42:53.128Z,29.77
2022-12-11T01:45:44.681Z,27.93
2022-12-11T01:48:12.858Z,28.23
2022-12-11T01:50:43.274Z,29.47
2022-12-11T01:53:10.320Z,29.80
2022-12-11T01:55:34.839Z,30.57
2022-12-11T01:57:58.215Z,29.43
2022-12-11T02:00:21.865Z,30.00
2022-12-11T02:02:47.209Z,29.27
2022-12-11T02:05:11.015Z,32.33
2022-12-11T02:07:41.303Z,32.27
2022-12-11T02:10:06.076Z,31.80
2022-12-11T02:12:38.529Z,31.77
2022-12-11T02:15:11.915Z,30.33
2022-12-11T02:17:42.194Z,32.03
2022-12-11T02:20:13.132Z,30.77
2022-12-11T02:23:14.214Z,29.50
2022-12-11T02:25:48.489Z,29.30
2022-12-11T02:28:20.228Z,31.07
2022-12-11T02:30:46.543Z,31.17
2022-12-11T02:33:15.012Z,32.60
2022-12-11T02:35:43.365Z,32.67
2022-12-11T02:38:13.605Z,32.17
2022-12-11T02:40:41.294Z,32.93
2022-12-11T02:43:08.420Z,31.77
2022-12-11T02:45:35.205Z,31.63
2022-12-11T02:48:02.698Z,32.57
2022-12-11T02:50:27.509Z,31.33
2022-12-11T02:52:55.770Z,31.57
2022-12-11T02:55:20.684Z,33.50
2022-12-11T02:57:49.153Z,31.80
2022-12-11T03:00:13.981Z,30.57
2022-12-11T03:02:39.152Z,34.47
2022-12-11T03:05:02.646Z,30.97
2022-12-11T03:07:29.634Z,31.97
2022-12-11T03:09:54.832Z,30.43
2022-12-11T03:12:22.285Z,30.47
2022-12-11T03:14:45.928Z,30.20
2022-12-11T03:17:16.100Z,30.70
2022-12-11T03:19:45.130Z,30.07
2022-12-11T03:22:13.805Z,31.17
2022-12-11T03:24:42.634Z,30.10
2022-12-11T03:27:17.022Z,30.27
2022-12-11T03:29:49.323Z,31.83
2022-12-11T03:32:22.987Z,29.37
2022-12-11T03:34:58.580Z,29.07
2022-12-11T03:37:24.381Z,28.60
2022-12-11T03:39:52.734Z,31.43
2022-12-11T03:42:17.885Z,29.07
2022-12-11T03:44:42.495Z,28.00
2022-12-11T03:47:09.599Z,26.77
2022-12-11T03:49:38.157Z,29.67
2022-12-11T03:52:06.052Z,27.20
2022-12-11T03:54:30.240Z,27.47
2022-12-11T03:56:57.907Z,28.40
2022-12-11T03:59:21.318Z,27.87
2022-12-11T04:01:44.631Z,27.83
2022-12-11T04:04:08.252Z,27.03
2022-12-11T04:06:31.855Z,28.00
2022-12-11T04:08:56.550Z,27.00
2022-12-11T04:11:39.499Z,27.60
2022-12-11T04:14:21.502Z,26.00
2022-12-11T04:16:44.888Z,27.63
2022-12-11T04:19:25.696Z,26.80
2022-12-11T04:22:06.608Z,26.33
2022-12-11T04:24:31.240Z,27.33
2022-12-11T04:26:54.469Z,25.07
2022-12-11T04:29:17.803Z,26.43
2022-12-11T04:31:41.346Z,25.33
2022-12-11T04:34:04.633Z,26.47
2022-12-11T04:36:27.829Z,25.20
2022-12-11T04:38:51.313Z,27.90
2022-12-11T04:41:17.556Z,27.27
2022-12-11T04:43:41.090Z,24.67
2022-12-11T04:46:07.195Z,26.50
2022-12-11T04:48:30.725Z,24.43
2022-12-11T04:50:54.122Z,26.97
2022-12-11T04:53:17.324Z,27.40
2022-12-11T04:55:40.962Z,27.87
2022-12-11T04:58:05.684Z,26.83
2022-12-11T05:00:28.935Z,26.90
2022-12-11T05:02:52.235Z,26.90
2022-12-11T05:05:15.504Z,28.00
2022-12-11T05:07:39.692Z,27.53
2022-12-11T05:10:03.240Z,27.27
2022-12-11T05:12:26.699Z,26.90
2022-12-11T05:14:53.634Z,28.07
2022-12-11T05:17:16.850Z,26.90
2022-12-11T05:19:40.226Z,25.13
2022-12-11T05:22:03.479Z,29.27
2022-12-11T05:24:26.709Z,27.70
2022-12-11T05:26:49.978Z,26.43
2022-12-11T05:29:13.281Z,27.03
2022-12-11T05:31:37.992Z,25.47
2022-12-11T05:34:01.347Z,25.80
2022-12-11T05:36:27.287Z,26.63
2022-12-11T05:38:50.842Z,26.73
2022-12-11T05:41:16.811Z,27.37
2022-12-11T05:43:40.493Z,25.73
2022-12-11T05:46:09.194Z,26.27
2022-12-11T05:48:33.915Z,25.70
2022-12-11T05:51:01.735Z,27.00
2022-12-11T05:53:25.324Z,25.87
2022-12-11T05:55:48.658Z,26.97
2022-12-11T05:58:12.294Z,25.13
2022-12-11T06:00:36.276Z,28.47
2022-12-11T06:02:59.848Z,26.93
2022-12-11T06:05:24.540Z,27.60
2022-12-11T06:07:47.818Z,27.33
2022-12-11T06:10:11.727Z,26.37
2022-12-11T06:12:34.971Z,27.53
2022-12-11T06:14:58.269Z,24.87
2022-12-11T06:17:21.570Z,27.60
2022-12-11T06:19:44.822Z,26.17
2022-12-11T06:22:09.707Z,25.53
2022-12-11T06:24:32.864Z,25.83
2022-12-11T06:26:56.246Z,26.13
2022-12-11T06:29:19.462Z,23.70
2022-12-11T06:31:43.087Z,25.37
2022-12-11T06:34:06.444Z,23.83
2022-12-11T06:36:29.815Z,23.63
2022-12-11T06:38:56.404Z,26.43
2022-12-11T06:41:20.029Z,26.03
2022-12-11T06:43:44.548Z,25.60
2022-12-11T06:46:09.588Z,24.60
2022-12-11T06:48:33.194Z,25.53
2022-12-11T06:50:56.438Z,24.83
2022-12-11T06:53:19.723Z,24.70
2022-12-11T06:55:44.809Z,23.50
2022-12-11T06:58:08.137Z,25.50
2022-12-11T07:00:31.489Z,26.53
2022-12-11T07:02:55.008Z,25.07
2022-12-11T07:05:18.662Z,24.23
2022-12-11T07:07:42.028Z,25.03
2022-12-11T07:10:08.402Z,25.33
2022-12-11T07:12:33.625Z,25.50
2022-12-11T07:14:56.957Z,24.47
2022-12-11T07:17:20.219Z,23.57
2022-12-11T07:19:43.734Z,24.43
2022-12-11T07:22:07.069Z,26.10
2022-12-11T07:24:30.425Z,25.83
2022-12-11T07:26:53.993Z,24.20
2022-12-11T07:29:18.812Z,25.07
2022-12-11T07:31:42.656Z,25.30
2022-12-11T07:34:08.594Z,26.23
2022-12-11T07:36:33.517Z,26.40
2022-12-11T07:38:57.577Z,25.70
2022-12-11T07:41:20.990Z,24.77
2022-12-11T07:43:49.808Z,24.57
2022-12-11T07:46:18.073Z,23.27
2022-12-11T07:48:43.205Z,24.83
2022-12-11T07:51:11.549Z,24.73
2022-12-11T07:53:34.829Z,25.53
2022-12-11T07:56:00.955Z,24.90
2022-12-11T07:58:24.498Z,22.73
2022-12-11T08:00:49.377Z,25.07
2022-12-11T08:03:14.434Z,23.63
2022-12-11T08:05:38.200Z,24.37
2022-12-11T08:08:01.503Z,24.43
2022-12-11T08:10:24.982Z,23.50
2022-12-11T08:12:48.322Z,22.37
2022-12-11T08:15:12.836Z,23.93
2022-12-11T08:17:39.973Z,23.93
2022-12-11T08:20:06.445Z,22.97
2022-12-11T08:22:30.180Z,22.10
2022-12-11T08:24:53.507Z,21.63
2022-12-11T08:27:16.766Z,20.17
2022-12-11T08:29:40.283Z,20.40
2022-12-11T08:32:07.632Z,18.83
2022-12-11T08:34:35.295Z,20.13
2022-12-11T08:36:59.887Z,20.17
2022-12-11T08:39:23.184Z,20.10
2022-12-11T08:41:46.416Z,19.80
2022-12-11T08:44:16.533Z,20.17
2022-12-11T08:46:40.455Z,20.33
2022-12-11T08:49:04.239Z,19.07
2022-12-11T08:51:30.288Z,18.27
2022-12-11T08:53:59.061Z,19.63
2022-12-11T08:56:23.643Z,18.60
2022-12-11T08:58:47.801Z,18.13
2022-12-11T09:01:14.228Z,18.90
2022-12-11T09:03:37.847Z,18.97
2022-12-11T09:06:01.211Z,18.43
2022-12-11T09:08:24.490Z,18.73
2022-12-11T09:10:49.374Z,17.53
2022-12-11T09:13:12.804Z,17.87
2022-12-11T09:15:36.304Z,18.83
2022-12-11T09:17:59.626Z,18.00
2022-12-11T09:20:22.893Z,18.13
2022-12-11T09:22:46.214Z,18.20
2022-12-11T09:25:10.766Z,16.83
2022-12-11T09:27:35.837Z,17.40
2022-12-11T09:29:59.074Z,18.20
2022-12-11T09:32:22.319Z,18.80
2022-12-11T09:34:45.872Z,17.33
2022-12-11T09:37:09.193Z,17.57
2022-12-11T09:39:32.519Z,18.33
2022-12-11T09:42:05.474Z,17.13
2022-12-11T09:44:39.653Z,17.60
2022-12-11T09:47:03.043Z,16.80
2022-12-11T09:49:40.264Z,16.50
2022-12-11T09:52:18.917Z,18.23
2022-12-11T09:54:51.952Z,17.53
2022-12-11T09:57:28.306Z,17.50
2022-12-11T10:00:11.276Z,16.97
2022-12-11T10:02:48.051Z,17.17
2022-12-11T10:05:19.500Z,17.50
2022-12-11T10:07:50.571Z,17.10
2022-12-11T10:10:24.007Z,17.13
2022-12-11T10:12:56.167Z,16.27
2022-12-11T10:15:36.005Z,16.97
2022-12-11T10:18:04.854Z,17.47
2022-12-11T10:20:36.412Z,17.03
2022-12-11T10:23:00.779Z,17.67
2022-12-11T10:25:28.842Z,18.17
2022-12-11T10:27:52.405Z,19.23
2022-12-11T10:30:20.213Z,18.80
2022-12-11T10:32:55.708Z,19.27
2022-12-11T10:35:28.147Z,19.00
2022-12-11T10:37:52.532Z,18.93
2022-12-11T10:40:17.136Z,18.17
2022-12-11T10:42:45.565Z,18.67
2022-12-11T10:45:16.726Z,17.90
2022-12-11T10:47:39.982Z,16.97
2022-12-11T10:50:06.160Z,17.47
2022-12-11T10:52:33.841Z,17.67
2022-12-11T10:55:01.633Z,17.33
2022-12-11T10:57:31.259Z,16.93
2022-12-11T10:59:54.763Z,17.40
2022-12-11T11:02:24.594Z,16.67
2022-12-11T11:04:48.246Z,17.93
2022-12-11T11:07:17.103Z,17.20
2022-12-11T11:09:41.062Z,15.20
2022-12-11T11:12:08.045Z,15.23
2022-12-11T11:14:31.631Z,15.87
2022-12-11T11:16:58.862Z,16.13
2022-12-11T11:19:26.425Z,15.03
2022-12-11T11:21:52.988Z,15.07
2022-12-11T11:24:30.051Z,15.90
2022-12-11T11:27:12.855Z,15.20
2022-12-11T11:29:38.032Z,15.20
2022-12-11T11:32:18.930Z,15.93
2022-12-11T11:34:43.127Z,16.37
2022-12-11T11:37:06.441Z,15.37
2022-12-11T11:39:38.763Z,16.43
2022-12-11T11:42:09.215Z,16.00
2022-12-11T11:44:37.096Z,17.00
2022-12-11T11:47:05.745Z,17.40
2022-12-11T11:49:46.036Z,17.87
2022-12-11T11:52:17.743Z,18.70
2022-12-11T11:54:50.647Z,19.00
2022-12-11T11:57:20.297Z,18.53
2022-12-11T11:59:50.247Z,19.53
2022-12-11T12:02:17.643Z,19.43
2022-12-11T12:04:41.038Z,20.77
2022-12-11T12:07:25.585Z,19.57
2022-12-11T12:09:56.885Z,18.37
2022-12-11T12:12:35.023Z,18.73
2022-12-11T12:15:22.094Z,17.90
2022-12-11T12:17:56.105Z,17.47
2022-12-11T12:20:30.927Z,18.70
2022-12-11T12:23:09.670Z,17.50
2022-12-11T12:25:41.939Z,17.97
2022-12-11T12:28:19.676Z,16.40
2022-12-11T12:30:59.561Z,14.87
2022-12-11T12:33:38.503Z,15.73
2022-12-11T12:36:15.607Z,16.60
2022-12-11T12:38:51.847Z,16.80
2022-12-11T12:41:22.732Z,17.20
2022-12-11T12:44:02.061Z,16.63
2022-12-11T12:46:40.776Z,16.40
2022-12-11T12:49:05.509Z,16.67
2022-12-11T12:51:30.046Z,16.87
2022-12-11T12:53:58.149Z,15.80
2022-12-11T12:56:24.039Z,16.07
2022-12-11T12:58:47.880Z,17.03
2022-12-11T13:01:19.318Z,17.13
2022-12-11T13:03:56.075Z,18.63
2022-12-11T13:06:35.936Z,18.37
2022-12-11T13:08:59.862Z,16.67
2022-12-11T13:11:35.000Z,17.30
2022-12-11T13:14:05.678Z,17.67
2022-12-11T13:16:38.087Z,15.93
2022-12-11T13:19:01.508Z,16.53
2022-12-11T13:21:32.289Z,15.43
2022-12-11T13:23:55.971Z,16.37
2022-12-11T13:26:32.788Z,16.23
2022-12-11T13:28:56.079Z,16.13
2022-12-11T13:31:35.826Z,16.07
2022-12-11T13:34:08.728Z,16.20
2022-12-11T13:36:34.776Z,15.37
2022-12-11T13:39:04.756Z,15.57
2022-12-11T13:41:31.259Z,15.80
2022-12-11T13:43:55.200Z,16.67
2022-12-11T13:46:26.320Z,17.03
2022-12-11T13:48:55.276Z,15.57
2022-12-11T13:51:22.014Z,17.17
2022-12-11T13:53:45.592Z,17.10
2022-12-11T13:56:18.224Z,17.20
2022-12-11T13:58:43.152Z,16.27
2022-12-11T14:01:11.203Z,16.50
2022-12-11T14:03:35.601Z,17.37
2022-12-11T14:05:59.019Z,18.43
2022-12-11T14:08:35.079Z,16.47
2022-12-11T14:10:58.830Z,19.17
2022-12-11T14:13:27.195Z,17.37
2022-12-11T14:15:52.530Z,19.10
2022-12-11T14:18:19.719Z,17.53
2022-12-11T14:20:43.646Z,18.10
2022-12-11T14:23:09.487Z,18.03
2022-12-11T14:25:33.001Z,18.70
2022-12-11T14:27:58.103Z,19.77
2022-12-11T14:30:28.242Z,18.60
2022-12-11T14:32:56.694Z,18.20
2022-12-11T14:35:30.880Z,17.10
2022-12-11T14:38:01.429Z,18.83
2022-12-11T14:40:32.850Z,17.50
2022-12-11T14:43:00.735Z,18.13
2022-12-11T14:45:32.370Z,19.43
2022-12-11T14:47:59.191Z,19.10
2022-12-11T14:50:27.341Z,18.77
2022-12-11T14:52:56.409Z,19.30
2022-12-11T14:55:24.468Z,18.57
2022-12-11T14:57:51.582Z,19.20
2022-12-11T15:00:27.760Z,19.77
2022-12-11T15:03:02.252Z,20.47
2022-12-11T15:05:25.877Z,20.87
2022-12-11T15:07:59.049Z,19.90
2022-12-11T15:10:31.313Z,20.17
2022-12-11T15:12:55.742Z,19.87
2022-12-11T15:15:19.840Z,21.23
2022-12-11T15:17:46.127Z,20.83
2022-12-11T15:20:25.974Z,21.03
2022-12-11T15:22:49.519Z,18.27
2022-12-11T15:25:21.201Z,23.00
2022-12-11T15:27:45.046Z,20.70
2022-12-11T15:30:28.337Z,19.93
2022-12-11T15:32:51.798Z,18.50
2022-12-11T15:35:27.361Z,19.00
2022-12-11T15:37:54.804Z,19.20
2022-12-11T15:40:18.598Z,17.97
2022-12-11T15:42:43.312Z,17.30
2022-12-11T15:45:08.406Z,17.00
2022-12-11T15:47:32.941Z,15.30
2022-12-11T15:50:00.039Z,15.60
2022-12-11T15:52:25.151Z,15.30
2022-12-11T15:54:48.443Z,25.10
2022-12-11T15:57:17.768Z,26.93
2022-12-11T15:59:41.194Z,22.80
2022-12-11T16:02:04.519Z,18.40
2022-12-11T16:04:27.935Z,14.43
2022-12-11T16:06:51.849Z,12.53
2022-12-11T16:09:16.396Z,15.77
2022-12-11T16:11:39.804Z,13.77
2022-12-11T16:14:04.369Z,12.77
2022-12-11T16:16:27.778Z,13.37
2022-12-11T16:18:51.407Z,13.10
2022-12-11T16:21:19.851Z,13.80
2022-12-11T16:23:44.849Z,13.57
2022-12-11T16:26:10.299Z,15.77
2022-12-11T16:28:33.890Z,14.27
2022-12-11T16:30:57.214Z,14.23
2022-12-11T16:33:20.574Z,15.27
2022-12-11T16:35:43.988Z,16.03
2022-12-11T16:38:07.829Z,16.47
2022-12-11T16:40:31.274Z,16.00
2022-12-11T16:42:55.915Z,15.80
2022-12-11T16:45:22.747Z,16.53
2022-12-11T16:47:46.168Z,16.90
2022-12-11T16:50:10.684Z,17.73
2022-12-11T16:52:34.357Z,17.07
2022-12-11T16:54:58.749Z,17.70
2022-12-11T16:57:22.603Z,16.10
2022-12-11T16:59:50.012Z,15.17
2022-12-11T17:02:13.380Z,15.33
2022-12-11T17:04:36.600Z,14.97
2022-12-11T17:07:00.002Z,15.83
2022-12-11T17:09:23.336Z,15.97
2022-12-11T17:11:46.660Z,16.73
2022-12-11T17:14:12.481Z,16.73
2022-12-11T17:16:37.134Z,16.20
2022-12-11T17:19:00.434Z,17.73
2022-12-11T17:21:24.812Z,16.30
2022-12-11T17:23:48.106Z,16.73
2022-12-11T17:26:11.550Z,15.70
2022-12-11T17:28:34.870Z,13.77
2022-12-11T17:30:59.265Z,14.37
2022-12-11T17:33:24.598Z,14.67
2022-12-11T17:35:47.874Z,13.17
2022-12-11T17:38:11.467Z,13.70
2022-12-11T17:40:34.871Z,15.33
2022-12-11T17:42:58.242Z,14.30
2022-12-11T17:45:21.531Z,13.37
2022-12-11T17:47:44.911Z,13.73
2022-12-11T17:50:10.809Z,14.20
2022-12-11T17:52:36.416Z,14.20
2022-12-11T17:55:01.818Z,14.33
2022-12-11T17:57:25.242Z,15.87
2022-12-11T17:59:48.709Z,15.60
2022-12-11T18:02:12.108Z,15.77
2022-12-11T18:04:35.694Z,15.10
2022-12-11T18:07:00.500Z,15.93
2022-12-11T18:09:23.894Z,15.37
2022-12-11T18:11:47.156Z,17.60
2022-12-11T18:14:16.689Z,16.73
2022-12-11T18:16:41.249Z,18.40
2022-12-11T18:19:05.223Z,17.60
2022-12-11T18:21:32.249Z,20.93
2022-12-11T18:23:57.035Z,17.63
2022-12-11T18:26:21.494Z,15.87
2022-12-11T18:28:45.656Z,16.70
2022-12-11T18:31:09.785Z,15.40
2022-12-11T18:33:33.234Z,15.47
2022-12-11T18:35:56.602Z,16.17
2022-12-11T18:38:20.005Z,22.07
2022-12-11T18:40:45.223Z,18.10
2022-12-11T18:43:08.482Z,17.03
2022-12-11T18:45:32.785Z,16.57
2022-12-11T18:47:56.708Z,16.67
2022-12-11T18:50:22.224Z,16.67
2022-12-11T18:52:45.602Z,16.83
2022-12-11T18:55:10.013Z,16.50
2022-12-11T18:57:34.903Z,15.57
2022-12-11T19:00:02.412Z,19.27
2022-12-11T19:02:25.788Z,18.90
2022-12-11T19:04:49.042Z,17.37
2022-12-11T19:07:12.782Z,15.73
2022-12-11T19:09:38.209Z,15.60
2022-12-11T19:12:02.119Z,15.53
2022-12-11T19:14:26.700Z,16.67
2022-12-11T19:16:50.751Z,16.03
2022-12-11T19:19:17.955Z,15.97
2022-12-11T19:21:41.654Z,16.93
2022-12-11T19:24:06.292Z,16.90
2022-12-11T19:26:29.737Z,17.37
2022-12-11T19:28:53.813Z,17.53
2022-12-11T19:31:21.739Z,18.63
2022-12-11T19:33:46.798Z,18.97
2022-12-11T19:36:15.254Z,17.33
2022-12-11T19:38:41.391Z,16.83
2022-12-11T19:41:07.760Z,17.63
2022-12-11T19:43:31.103Z,19.07
2022-12-11T19:45:54.438Z,18.63
2022-12-11T19:48:19.083Z,16.70
2022-12-11T19:50:42.616Z,18.13
2022-12-11T19:53:06.313Z,17.87
2022-12-11T19:55:29.583Z,18.87
2022-12-11T19:57:52.845Z,19.03
2022-12-11T20:00:17.089Z,17.17
2022-12-11T20:02:40.638Z,16.90
2022-12-11T20:05:06.027Z,18.53
2022-12-11T20:07:30.805Z,17.93
2022-12-11T20:09:54.092Z,18.50
2022-12-11T20:12:17.429Z,20.03
2022-12-11T20:14:40.815Z,17.20
2022-12-11T20:17:13.973Z,27.50
2022-12-11T20:19:37.967Z,16.47
2022-12-11T20:22:02.622Z,17.43
2022-12-11T20:24:26.203Z,16.20
2022-12-11T20:26:49.779Z,16.67
2022-12-11T20:29:14.125Z,15.93
2022-12-11T20:31:38.208Z,17.63
2022-12-11T20:34:01.423Z,16.83
2022-12-11T20:36:26.157Z,17.17
2022-12-11T20:38:51.403Z,16.50
2022-12-11T20:41:18.971Z,18.93
2022-12-11T20:43:43.242Z,18.20
2022-12-11T20:46:07.458Z,17.83
2022-12-11T20:48:30.858Z,17.90
2022-12-11T20:50:54.150Z,17.23
2022-12-11T20:53:17.412Z,18.83
2022-12-11T20:55:43.517Z,18.40
2022-12-11T20:58:06.799Z,19.27
2022-12-11T21:00:30.111Z,18.67
2022-12-11T21:02:53.582Z,18.67
2022-12-11T21:05:16.867Z,17.80
2022-12-11T21:07:40.095Z,19.37
2022-12-11T21:10:03.446Z,18.60
2022-12-11T21:12:31.565Z,21.20
2022-12-11T21:14:55.267Z,19.90
2022-12-11T21:17:18.466Z,19.07
2022-12-11T21:19:41.850Z,20.10
2022-12-11T21:22:06.579Z,20.43
2022-12-11T21:24:31.423Z,19.70
2022-12-11T21:26:56.435Z,20.70
2022-12-11T21:29:21.478Z,21.00
2022-12-11T21:31:45.698Z,19.37
2022-12-11T21:34:09.251Z,20.47
2022-12-11T21:36:32.905Z,21.30
2022-12-11T21:38:56.236Z,20.27
2022-12-11T21:41:22.541Z,22.07
2022-12-11T21:44:49.817Z,19.50
2022-12-11T21:46:32.502Z,21.40
2022-12-11T21:48:56.225Z,20.87
2022-12-11T21:51:24.219Z,21.60
2022-12-11T21:53:47.856Z,21.80
2022-12-11T21:56:14.151Z,21.00
2022-12-11T21:58:38.394Z,20.20
2022-12-11T22:01:01.871Z,22.10
2022-12-11T22:03:26.581Z,21.73
2022-12-11T22:05:49.817Z,20.90
2022-12-11T22:08:13.047Z,21.20
2022-12-11T22:10:36.384Z,21.87
2022-12-11T22:12:59.846Z,20.57
2022-12-11T22:15:23.446Z,20.53
2022-12-11T22:17:48.647Z,22.23
2022-12-11T22:20:14.598Z,20.03
2022-12-11T22:22:37.900Z,20.00
2022-12-11T22:25:01.425Z,21.33
2022-12-11T22:27:24.722Z,20.90
2022-12-11T22:29:50.681Z,22.87
2022-12-11T22:32:14.045Z,23.03
2022-12-11T22:34:37.321Z,22.07
2022-12-11T22:37:02.010Z,22.00
2022-12-11T22:39:25.537Z,22.23
2022-12-11T22:41:48.893Z,22.33
2022-12-11T22:44:17.280Z,22.30
2022-12-11T22:46:43.127Z,20.87
2022-12-11T22:49:10.245Z,20.73
2022-12-11T22:51:33.714Z,22.03
2022-12-11T22:53:59.369Z,20.63
2022-12-11T22:56:22.772Z,20.80
2022-12-11T22:58:46.052Z,21.83
2022-12-11T23:01:12.692Z,22.17
2022-12-11T23:03:36.006Z,22.43
2022-12-11T23:06:04.866Z,20.67
2022-12-11T23:08:28.656Z,21.27
2022-12-11T23:10:53.428Z,22.17
2022-12-11T23:13:16.776Z,22.93
2022-12-11T23:15:40.036Z,22.37
2022-12-11T23:18:03.575Z,23.10
2022-12-11T23:20:27.020Z,21.97
2022-12-11T23:22:50.273Z,22.37
2022-12-11T23:25:15.085Z,21.90
2022-12-11T23:27:40.758Z,22.27
2022-12-11T23:30:04.884Z,22.13
2022-12-11T23:32:28.194Z,23.37
2022-12-11T23:34:51.537Z,23.60
2022-12-11T23:37:15.413Z,24.07
2022-12-11T23:39:38.702Z,22.43
2022-12-11T23:42:02.034Z,23.33
2022-12-11T23:44:26.610Z,24.43
2022-12-11T23:46:49.926Z,23.80
2022-12-11T23:49:13.158Z,24.13
2022-12-11T23:51:38.409Z,23.07
2022-12-11T23:54:01.716Z,23.43
2022-12-11T23:56:27.355Z,22.50
2022-12-11T23:58:51.048Z,23.50
